Time;durP1;ratioP1;P1;durP2;ratioP2;P2;SDS_P1;SDS_P2;PMS_P1;PMS_P2;Temp;Humidity;BMP_temperature;BMP_pressure;BME280_temperature;BME280_humidity;BME280_pressure;Samples;Min_cycle;Max_cycle;Signal;HPM_P1;HPM_P2
2022/05/31 00:00:48;;;;;;;3.75;3.15;;;13.50;49.20;;;;;;4973955;28;20489;-49
2022/05/31 00:03:15;;;;;;;6.25;3.20;;;13.50;49.30;;;;;;4981774;28;20501;-47
2022/05/31 00:05:43;;;;;;;4.43;2.70;;;13.50;49.40;;;;;;4978911;28;20054;-48
2022/05/31 00:08:12;;;;;;;4.05;2.75;;;13.50;49.40;;;;;;4979673;28;20063;-49
2022/05/31 00:10:39;;;;;;;5.45;3.70;;;13.40;49.40;;;;;;4978088;28;20485;-51
2022/05/31 00:13:07;;;;;;;7.22;3.40;;;13.40;49.50;;;;;;4980236;28;20061;-49
2022/05/31 00:15:34;;;;;;;4.68;3.38;;;13.30;49.40;;;;;;4977196;28;20461;-50
2022/05/31 00:18:02;;;;;;;8.30;3.50;;;13.30;49.50;;;;;;4978316;28;20054;-47
2022/05/31 00:20:29;;;;;;;6.32;3.10;;;13.30;49.60;;;;;;4975005;28;20062;-48
2022/05/31 00:22:57;;;;;;;8.50;3.63;;;13.30;49.70;;;;;;4979114;28;20062;-47
2022/05/31 00:25:26;;;;;;;4.55;3.03;;;13.30;49.70;;;;;;4977589;28;20062;-47
2022/05/31 00:27:53;;;;;;;5.68;3.13;;;13.30;49.80;;;;;;4976799;28;20065;-49
2022/05/31 00:30:21;;;;;;;4.57;3.35;;;13.30;49.80;;;;;;4978581;28;20059;-47
2022/05/31 00:32:51;;;;;;;4.72;3.53;;;13.20;49.80;;;;;;4977018;28;20062;-48
2022/05/31 00:35:21;;;;;;;6.25;3.40;;;13.20;49.90;;;;;;4978681;28;20054;-48
2022/05/31 00:37:49;;;;;;;6.10;3.55;;;13.20;50.00;;;;;;4977155;28;20054;-47
2022/05/31 00:40:20;;;;;;;5.47;3.42;;;13.20;50.00;;;;;;4980280;28;20417;-47
2022/05/31 00:42:53;;;;;;;5.00;3.22;;;13.20;50.10;;;;;;4976089;28;20065;-50
2022/05/31 00:45:21;;;;;;;4.43;3.15;;;13.20;50.20;;;;;;4978524;28;20054;-53
2022/05/31 00:47:49;;;;;;;4.78;3.00;;;13.10;50.20;;;;;;4979714;28;20054;-48
2022/05/31 00:50:26;;;;;;;5.90;3.83;;;13.10;50.30;;;;;;4976213;28;20058;-49
2022/05/31 00:52:59;;;;;;;9.95;3.35;;;13.10;50.50;;;;;;4978362;28;20505;-47
2022/05/31 00:55:30;;;;;;;3.45;2.80;;;13.10;50.50;;;;;;4978354;28;20509;-48
2022/05/31 00:58:05;;;;;;;7.70;3.30;;;13.10;50.60;;;;;;4978531;28;20055;-48
2022/05/31 01:00:32;;;;;;;;;;;13.10;50.70;;;;;;4970286;28;20065;-47
2022/05/31 01:03:01;;;;;;;8.38;3.20;;;13.20;50.70;;;;;;4973662;28;19926;-46
2022/05/31 01:05:28;;;;;;;5.45;2.70;;;13.10;50.40;;;;;;4970921;28;20053;-47
2022/05/31 01:07:56;;;;;;;4.80;3.03;;;13.10;50.50;;;;;;4975353;28;20065;-48
2022/05/31 01:10:24;;;;;;;4.15;2.70;;;13.10;50.50;;;;;;4976388;28;20057;-48
2022/05/31 01:12:53;;;;;;;4.22;2.72;;;13.10;50.50;;;;;;4978566;28;20066;-51
2022/05/31 01:15:22;;;;;;;6.03;2.60;;;13.10;50.60;;;;;;4978655;28;20061;-48
2022/05/31 01:17:50;;;;;;;4.10;2.78;;;13.20;50.70;;;;;;4977570;28;20047;-48
2022/05/31 01:20:22;;;;;;;4.28;2.70;;;13.20;50.70;;;;;;4977176;28;20058;-48
2022/05/31 01:22:51;;;;;;;4.40;2.95;;;13.10;50.70;;;;;;4976115;28;20514;-48
2022/05/31 01:25:31;;;;;;;5.90;2.88;;;13.20;50.80;;;;;;4978492;28;20528;-46
2022/05/31 01:28:06;;;;;;;7.43;2.72;;;13.10;50.80;;;;;;4979952;28;20055;-49
2022/05/31 01:30:38;;;;;;;5.28;3.00;;;13.20;50.80;;;;;;4971314;28;20065;-47
2022/05/31 01:33:11;;;;;;;4.40;2.67;;;13.10;50.70;;;;;;4975638;28;20066;-48
2022/05/31 01:35:40;;;;;;;6.75;3.10;;;13.20;50.80;;;;;;4978938;28;20058;-49
2022/05/31 01:38:12;;;;;;;6.57;2.78;;;13.20;50.80;;;;;;4975972;28;20597;-50
2022/05/31 01:40:46;;;;;;;5.10;2.58;;;13.10;50.80;;;;;;4974270;28;20500;-47
2022/05/31 01:43:13;;;;;;;5.37;2.70;;;13.10;50.80;;;;;;4981109;28;20054;-47
2022/05/31 01:45:46;;;;;;;3.75;2.65;;;13.20;50.90;;;;;;4980589;28;20494;-47
2022/05/31 01:48:15;;;;;;;8.20;2.78;;;13.20;50.90;;;;;;4983396;28;20506;-48
2022/05/31 01:50:46;;;;;;;4.60;2.30;;;13.20;50.80;;;;;;4974920;28;20055;-48
2022/05/31 01:53:15;;;;;;;6.50;2.75;;;13.20;51.10;;;;;;4980461;28;20421;-47
2022/05/31 01:55:44;;;;;;;5.60;2.60;;;13.20;50.90;;;;;;4980846;28;20046;-48
2022/05/31 01:58:18;;;;;;;4.18;2.33;;;13.20;51.00;;;;;;4981967;28;20509;-48
2022/05/31 02:00:46;;;;;;;;;;;13.20;51.00;;;;;;4977005;28;21299;-49
2022/05/31 02:03:16;;;;;;;5.57;2.70;;;13.20;50.90;;;;;;4983221;28;19937;-48
2022/05/31 02:05:50;;;;;;;4.82;2.20;;;13.20;50.80;;;;;;4978837;28;20058;-48
2022/05/31 02:08:18;;;;;;;2.85;2.20;;;13.30;50.90;;;;;;4982336;28;20050;-47
2022/05/31 02:10:47;;;;;;;3.20;2.47;;;13.20;50.90;;;;;;4977537;28;20055;-51
2022/05/31 02:13:16;;;;;;;3.58;2.15;;;13.20;50.90;;;;;;4983167;28;20058;-46
2022/05/31 02:15:44;;;;;;;5.78;2.47;;;13.20;50.90;;;;;;4978276;28;20050;-47
2022/05/31 02:18:12;;;;;;;3.55;2.13;;;13.20;51.00;;;;;;4979232;28;20053;-48
2022/05/31 02:20:41;;;;;;;3.58;2.08;;;13.20;51.00;;;;;;4978716;28;20062;-48
2022/05/31 02:23:10;;;;;;;4.97;1.88;;;13.20;51.00;;;;;;4980959;28;20059;-50
2022/05/31 02:25:37;;;;;;;2.35;2.03;;;13.20;51.10;;;;;;4982655;28;20058;-49
2022/05/31 02:28:05;;;;;;;2.88;2.03;;;13.20;51.10;;;;;;4981154;28;20050;-47
2022/05/31 02:30:33;;;;;;;6.43;2.00;;;13.20;51.20;;;;;;4978030;28;20525;-49
2022/05/31 02:33:00;;;;;;;5.43;2.20;;;13.20;51.20;;;;;;4977172;28;20070;-47
2022/05/31 02:35:29;;;;;;;2.95;1.95;;;13.30;51.20;;;;;;4981583;28;20058;-49
2022/05/31 02:37:58;;;;;;;3.67;2.08;;;13.30;51.20;;;;;;4978643;28;20501;-47
2022/05/31 02:40:28;;;;;;;4.03;1.95;;;13.30;51.30;;;;;;4979142;28;20061;-47
2022/05/31 02:42:55;;;;;;;4.70;1.80;;;13.30;51.20;;;;;;4980335;28;20059;-50
2022/05/31 02:45:23;;;;;;;2.95;1.77;;;13.30;51.10;;;;;;4976674;28;20058;-47
2022/05/31 02:47:50;;;;;;;4.60;1.70;;;13.30;51.20;;;;;;4980730;28;20414;-49
2022/05/31 02:50:18;;;;;;;3.08;1.98;;;13.30;51.20;;;;;;4981493;28;20066;-48
2022/05/31 02:52:45;;;;;;;2.83;1.92;;;13.30;51.10;;;;;;4976211;28;20054;-50
2022/05/31 02:55:13;;;;;;;6.07;1.88;;;13.30;51.10;;;;;;4982116;28;20050;-47
2022/05/31 02:57:42;;;;;;;4.15;2.25;;;13.30;51.10;;;;;;4978661;28;20053;-49
2022/05/31 03:00:11;;;;;;;4.85;1.92;;;13.30;51.10;;;;;;4980315;28;20054;-50
2022/05/31 03:02:39;;;;;;;4.47;1.92;;;13.30;51.10;;;;;;4974893;28;20069;-48
2022/05/31 03:05:07;;;;;;;4.30;1.90;;;13.30;51.10;;;;;;4982128;28;20383;-49
2022/05/31 03:07:35;;;;;;;3.83;2.10;;;13.30;51.10;;;;;;4982082;28;20046;-47
2022/05/31 03:10:02;;;;;;;3.85;2.10;;;13.30;51.10;;;;;;4979424;28;20517;-46
2022/05/31 03:12:30;;;;;;;3.92;1.60;;;13.30;51.10;;;;;;4976465;28;20057;-50
2022/05/31 03:15:03;;;;;;;2.72;2.00;;;13.30;51.10;;;;;;4982330;28;20058;-49
2022/05/31 03:17:34;;;;;;;3.00;2.00;;;13.30;51.20;;;;;;4975185;28;20055;-49
2022/05/31 03:20:06;;;;;;;4.13;1.88;;;13.30;51.10;;;;;;4979260;28;20058;-48
2022/05/31 03:22:38;;;;;;;2.67;2.03;;;13.30;51.10;;;;;;4977366;28;21047;-49
2022/05/31 03:25:10;;;;;;;3.35;2.15;;;13.30;51.00;;;;;;4981125;28;20061;-51
2022/05/31 03:27:38;;;;;;;3.13;1.90;;;13.30;51.00;;;;;;4968622;28;20051;-49
2022/05/31 03:30:08;;;;;;;4.57;1.98;;;13.30;51.00;;;;;;4979641;28;20052;-48
2022/05/31 03:32:36;;;;;;;4.00;1.95;;;13.20;51.10;;;;;;4978835;28;20058;-47
2022/05/31 03:35:05;;;;;;;3.70;1.95;;;13.20;51.10;;;;;;4981998;28;20058;-48
2022/05/31 03:37:32;;;;;;;5.65;2.75;;;13.20;51.10;;;;;;4978602;28;20050;-47
2022/05/31 03:40:00;;;;;;;8.00;2.17;;;13.10;51.20;;;;;;4981768;28;20054;-49
2022/05/31 03:42:29;;;;;;;3.65;1.80;;;13.10;51.20;;;;;;4971925;28;20061;-47
2022/05/31 03:44:56;;;;;;;2.42;1.90;;;13.10;51.20;;;;;;4976985;28;20394;-50
2022/05/31 03:47:25;;;;;;;2.88;1.77;;;13.10;51.30;;;;;;4976482;28;20065;-48
2022/05/31 03:49:53;;;;;;;7.32;2.13;;;13.10;51.40;;;;;;4980114;28;20505;-48
2022/05/31 03:52:21;;;;;;;4.43;2.40;;;13.00;51.40;;;;;;4979129;28;20054;-49
2022/05/31 03:54:50;;;;;;;3.28;2.05;;;13.00;51.50;;;;;;4982232;28;20057;-49
2022/05/31 03:57:22;;;;;;;4.85;2.20;;;13.00;51.60;;;;;;4981299;28;20054;-48
2022/05/31 03:59:49;;;;;;;3.05;1.92;;;13.00;51.70;;;;;;4978922;28;20066;-49
2022/05/31 04:02:17;;;;;;;4.97;2.20;;;13.00;51.70;;;;;;4980362;28;20502;-51
2022/05/31 04:04:46;;;;;;;4.88;2.40;;;13.00;51.90;;;;;;4980031;28;20050;-47
2022/05/31 04:07:14;;;;;;;4.45;2.30;;;12.90;52.00;;;;;;4981291;28;20058;-47
2022/05/31 04:09:41;;;;;;;5.53;2.30;;;12.90;52.00;;;;;;4982668;28;20062;-48
2022/05/31 04:12:09;;;;;;;3.88;2.15;;;12.90;52.20;;;;;;4979517;28;20293;-51
2022/05/31 04:14:37;;;;;;;5.97;1.90;;;12.90;52.30;;;;;;4980507;28;20054;-48
2022/05/31 04:17:05;;;;;;;5.28;2.17;;;12.90;52.40;;;;;;4969330;28;20498;-50
2022/05/31 04:19:32;;;;;;;18.20;7.05;;;12.90;52.50;;;;;;4973605;28;20050;-47
2022/05/31 04:22:04;;;;;;;8.30;4.50;;;12.90;52.60;;;;;;4957496;28;20057;-49
2022/05/31 04:24:31;;;;;;;6.43;3.38;;;12.90;52.70;;;;;;5011238;28;20057;-48
2022/05/31 04:26:59;;;;;;;6.30;2.55;;;12.90;52.70;;;;;;4993795;28;20054;-47
2022/05/31 04:29:26;;;;;;;5.57;2.40;;;13.00;52.80;;;;;;4995973;28;20061;-47
2022/05/31 04:31:54;;;;;;;5.47;2.55;;;13.00;52.80;;;;;;4998349;28;20506;-49
2022/05/31 04:34:21;;;;;;;4.18;2.30;;;13.00;52.80;;;;;;4998525;28;20053;-47
2022/05/31 04:36:49;;;;;;;3.80;2.33;;;13.00;52.80;;;;;;4992504;28;20065;-47
2022/05/31 04:39:18;;;;;;;10.20;4.22;;;13.00;52.70;;;;;;4999995;28;20046;-48
2022/05/31 04:41:46;;;;;;;4.95;2.70;;;13.10;52.70;;;;;;4998041;28;20085;-47
2022/05/31 04:44:13;;;;;;;9.50;2.63;;;13.10;52.70;;;;;;5000899;28;20418;-47
2022/05/31 04:46:42;;;;;;;6.32;2.58;;;13.10;52.70;;;;;;4996306;28;20046;-49
2022/05/31 04:49:09;;;;;;;3.88;2.10;;;13.10;52.80;;;;;;5001018;28;20057;-48
2022/05/31 04:51:37;;;;;;;3.63;2.05;;;13.10;52.90;;;;;;4996375;28;20061;-48
2022/05/31 04:54:05;;;;;;;5.63;2.50;;;13.10;52.90;;;;;;4998343;28;20060;-50
2022/05/31 04:56:35;;;;;;;3.55;2.22;;;13.20;53.00;;;;;;4999138;28;20065;-47
2022/05/31 04:59:02;;;;;;;5.82;2.83;;;13.20;52.90;;;;;;4997268;28;20129;-47
2022/05/31 05:01:30;;;;;;;4.35;2.30;;;13.20;52.80;;;;;;4991204;28;20058;-48
2022/05/31 05:03:58;;;;;;;3.22;2.22;;;13.30;52.80;;;;;;4984549;28;20097;-48
2022/05/31 05:06:25;;;;;;;4.28;2.20;;;13.30;52.70;;;;;;4994740;28;20056;-46
2022/05/31 05:08:53;;;;;;;3.28;2.20;;;13.40;52.90;;;;;;4992504;28;20097;-48
2022/05/31 05:11:22;;;;;;;6.07;2.50;;;13.40;52.90;;;;;;4996005;28;20069;-46
2022/05/31 05:13:54;;;;;;;6.07;2.17;;;13.40;52.90;;;;;;5003693;28;20506;-47
2022/05/31 05:16:22;;;;;;;3.13;2.17;;;13.50;52.90;;;;;;4995912;28;20057;-47
2022/05/31 05:18:49;;;;;;;3.75;2.35;;;13.50;53.40;;;;;;5002663;28;20053;-48
2022/05/31 05:21:17;;;;;;;4.70;2.60;;;13.50;52.90;;;;;;4995744;28;20514;-49
2022/05/31 05:23:45;;;;;;;7.03;2.38;;;13.60;52.90;;;;;;4995051;28;20062;-47
2022/05/31 05:26:14;;;;;;;3.47;2.10;;;13.60;53.00;;;;;;5003240;28;20104;-49
2022/05/31 05:31:30;;;;;;;6.03;2.75;;;13.70;53.20;;;;;;4998771;28;20064;-48
2022/05/31 05:34:00;;;;;;;4.00;2.33;;;13.70;53.30;;;;;;4999078;28;20058;-50
2022/05/31 05:36:28;;;;;;;4.68;2.08;;;13.80;53.60;;;;;;4994555;28;20444;-49
2022/05/31 05:38:56;;;;;;;4.47;1.83;;;13.80;53.40;;;;;;5003545;28;20049;-50
2022/05/31 05:41:25;;;;;;;4.65;1.67;;;13.90;53.50;;;;;;4997386;28;20061;-47
2022/05/31 05:43:54;;;;;;;2.30;1.67;;;13.90;53.40;;;;;;4993468;28;20054;-49
2022/05/31 05:46:24;;;;;;;3.38;1.67;;;13.90;53.30;;;;;;4997336;28;20065;-48
2022/05/31 05:48:53;;;;;;;5.10;2.53;;;14.00;53.20;;;;;;4997288;28;20043;-48
2022/05/31 05:51:23;;;;;;;5.50;2.70;;;14.10;53.10;;;;;;4993346;28;20425;-49
2022/05/31 05:53:51;;;;;;;4.80;2.38;;;14.10;53.00;;;;;;4998249;28;20512;-47
2022/05/31 05:56:20;;;;;;;5.40;2.80;;;14.10;53.00;;;;;;4991041;28;20069;-50
2022/05/31 05:58:48;;;;;;;3.28;1.95;;;14.10;52.90;;;;;;4993922;28;20041;-50
2022/05/31 06:01:21;;;;;;;5.35;2.45;;;14.20;53.00;;;;;;4988696;28;20509;-49
2022/05/31 06:03:54;;;;;;;5.18;2.00;;;14.20;53.00;;;;;;4995612;28;20053;-50
2022/05/31 06:06:24;;;;;;;3.70;1.90;;;14.10;53.00;;;;;;4998159;28;20054;-46
2022/05/31 06:08:56;;;;;;;3.53;2.13;;;14.20;53.00;;;;;;4997227;28;20481;-47
2022/05/31 06:11:27;;;;;;;2.78;1.90;;;14.30;52.90;;;;;;4997131;28;20061;-47
2022/05/31 06:13:59;;;;;;;4.03;1.65;;;14.30;52.90;;;;;;4995234;28;20066;-47
2022/05/31 06:16:32;;;;;;;4.78;1.75;;;14.30;52.90;;;;;;4996566;28;20049;-46
2022/05/31 06:19:06;;;;;;;2.88;1.65;;;14.40;53.10;;;;;;4998243;28;20077;-46
2022/05/31 06:21:34;;;;;;;2.53;1.70;;;14.40;53.10;;;;;;4995484;28;20050;-48
2022/05/31 06:24:02;;;;;;;4.03;1.40;;;14.50;53.30;;;;;;4996432;28;20054;-47
2022/05/31 06:26:30;;;;;;;6.00;1.38;;;14.50;53.30;;;;;;4999215;28;20587;-50
2022/05/31 06:28:58;;;;;;;13.02;1.70;;;14.60;53.30;;;;;;4998459;28;20573;-50
2022/05/31 06:31:25;;;;;;;6.82;2.30;;;14.70;53.20;;;;;;4997994;28;20050;-48
2022/05/31 06:33:53;;;;;;;3.38;1.60;;;14.80;53.10;;;;;;4995967;28;20053;-47
2022/05/31 06:36:22;;;;;;;2.75;1.50;;;14.80;53.10;;;;;;4996299;28;20058;-49
2022/05/31 06:38:50;;;;;;;3.17;1.50;;;15.00;53.00;;;;;;4999271;28;20054;-46
2022/05/31 06:41:17;;;;;;;2.53;1.60;;;15.00;52.90;;;;;;4999335;28;20065;-48
2022/05/31 06:43:45;;;;;;;5.43;1.85;;;15.10;52.80;;;;;;4996554;28;20062;-49
2022/05/31 06:46:13;;;;;;;6.25;1.98;;;15.20;52.70;;;;;;4995604;28;20054;-48
2022/05/31 06:48:41;;;;;;;4.15;1.30;;;15.30;52.50;;;;;;5001846;28;20057;-48
2022/05/31 06:51:10;;;;;;;1.58;1.15;;;15.40;52.30;;;;;;4995075;28;20058;-48
2022/05/31 06:59:09;;;;;;;4.22;1.40;;;15.60;51.90;;;;;;5005865;28;20061;-50
2022/05/31 07:01:39;;;;;;;1.88;1.20;;;15.60;51.70;;;;;;4992614;28;20509;-51
2022/05/31 07:04:07;;;;;;;2.45;1.20;;;15.70;51.60;;;;;;4995370;28;20516;-46
2022/05/31 07:06:34;;;;;;;4.30;1.50;;;15.70;51.30;;;;;;4997820;28;20066;-49
2022/05/31 07:09:04;;;;;;;3.78;1.48;;;15.80;50.90;;;;;;4998174;28;20050;-48
2022/05/31 07:11:31;;;;;;;2.58;1.58;;;15.80;50.80;;;;;;4995617;28;20054;-51
2022/05/31 07:14:00;;;;;;;2.50;1.50;;;15.80;50.80;;;;;;4996048;28;20516;-46
2022/05/31 07:16:28;;;;;;;5.18;1.58;;;15.80;51.00;;;;;;4997291;28;20061;-49
2022/05/31 07:18:57;;;;;;;7.20;2.20;;;15.90;51.30;;;;;;4994711;28;20501;-49
2022/05/31 07:21:24;;;;;;;3.75;1.48;;;15.90;51.70;;;;;;4992158;28;20065;-49
2022/05/31 07:23:53;;;;;;;4.97;1.20;;;15.90;51.60;;;;;;4997632;28;20498;-50
2022/05/31 07:26:22;;;;;;;1.42;1.00;;;16.00;51.80;;;;;;4993365;28;20062;-47
2022/05/31 07:28:50;;;;;;;2.80;1.38;;;16.00;51.80;;;;;;4997800;28;20417;-49
2022/05/31 07:31:17;;;;;;;1.90;1.13;;;16.00;51.70;;;;;;4996533;28;20424;-52
2022/05/31 07:33:45;;;;;;;1.33;1.17;;;16.00;51.50;;;;;;4995158;28;20502;-47
2022/05/31 07:36:12;;;;;;;3.25;1.25;;;16.10;51.40;;;;;;4996076;28;20050;-49
2022/05/31 07:38:41;;;;;;;1.58;0.95;;;16.10;51.60;;;;;;4997547;28;20058;-47
2022/05/31 07:41:09;;;;;;;3.00;1.10;;;16.20;51.50;;;;;;4992525;28;20062;-46
2022/05/31 07:43:38;;;;;;;1.98;1.27;;;16.30;51.50;;;;;;4993350;28;20060;-47
2022/05/31 07:46:10;;;;;;;3.90;1.80;;;16.30;51.70;;;;;;4989536;28;20060;-52
2022/05/31 07:48:39;;;;;;;4.40;1.83;;;16.30;51.90;;;;;;4995008;28;20394;-48
2022/05/31 07:51:07;;;;;;;5.10;2.20;;;16.30;52.00;;;;;;4991830;28;20141;-48
2022/05/31 07:53:35;;;;;;;6.45;2.58;;;16.20;52.20;;;;;;4998438;28;20068;-49
2022/05/31 07:56:06;;;;;;;5.00;2.38;;;16.20;52.60;;;;;;4996268;28;20050;-48
2022/05/31 07:58:34;;;;;;;4.05;2.13;;;16.20;52.60;;;;;;4999539;28;20054;-48
2022/05/31 08:01:05;;;;;;;10.20;2.35;;;16.20;52.60;;;;;;4995915;28;20055;-46
2022/05/31 08:03:33;;;;;;;5.50;2.03;;;16.10;52.50;;;;;;4997409;28;20049;-45
2022/05/31 08:06:03;;;;;;;8.20;2.60;;;16.10;52.30;;;;;;4996754;28;20713;-49
2022/05/31 08:08:31;;;;;;;6.13;2.13;;;16.00;52.40;;;;;;4998901;28;20077;-49
2022/05/31 08:10:58;;;;;;;8.73;2.60;;;16.00;52.30;;;;;;4996784;28;20049;-47
2022/05/31 08:13:26;;;;;;;7.95;2.53;;;16.00;52.50;;;;;;4998111;28;20061;-47
2022/05/31 08:15:53;;;;;;;9.32;2.53;;;16.00;52.60;;;;;;4993411;28;20061;-46
2022/05/31 08:18:22;;;;;;;5.25;3.00;;;15.90;52.60;;;;;;4996630;28;20058;-49
2022/05/31 08:20:50;;;;;;;10.35;2.97;;;15.80;52.60;;;;;;4995431;28;20509;-51
2022/05/31 08:23:17;;;;;;;7.40;2.72;;;15.70;52.80;;;;;;4995146;28;20069;-47
2022/05/31 08:25:44;;;;;;;5.47;2.90;;;15.70;52.50;;;;;;4991129;28;20052;-47
2022/05/31 08:28:12;;;;;;;7.10;2.70;;;15.70;52.40;;;;;;4986714;28;20516;-52
2022/05/31 08:30:39;;;;;;;11.38;3.22;;;15.60;52.30;;;;;;4992288;28;20050;-52
2022/05/31 08:33:07;;;;;;;5.28;2.72;;;15.60;52.50;;;;;;4994784;28;20461;-52
2022/05/31 08:35:36;;;;;;;6.63;2.92;;;15.50;52.60;;;;;;4991588;28;20417;-48
2022/05/31 08:38:03;;;;;;;6.75;3.17;;;15.50;53.00;;;;;;4996569;28;20054;-50
2022/05/31 08:40:38;;;;;;;11.23;2.90;;;15.40;53.30;;;;;;4990414;28;20053;-53
2022/05/31 08:43:08;;;;;;;7.65;2.75;;;15.40;53.50;;;;;;4996184;28;20065;-50
2022/05/31 08:45:44;;;;;;;6.88;2.63;;;15.40;53.30;;;;;;4998084;28;20046;-48
2022/05/31 08:48:22;;;;;;;9.32;2.80;;;15.40;53.30;;;;;;4996615;28;20489;-52
2022/05/31 08:56:56;;;;;;;8.23;2.30;;;15.40;53.40;;;;;;4980593;28;20057;-47
2022/05/31 08:56:56;;;;;;;5.20;2.13;;;15.40;53.40;;;;;;4999936;28;20060;-51
2022/05/31 08:59:30;;;;;;;5.25;2.65;;;15.30;53.30;;;;;;5001329;28;20651;-46
2022/05/31 09:02:02;;;;;;;7.60;2.30;;;15.30;53.50;;;;;;5001075;28;20054;-47
2022/05/31 09:04:38;;;;;;;5.97;2.33;;;15.30;53.30;;;;;;4998450;28;20057;-47
2022/05/31 09:07:11;;;;;;;5.03;2.70;;;15.30;53.60;;;;;;5004055;28;20057;-48
2022/05/31 09:09:43;;;;;;;9.15;2.53;;;15.30;53.80;;;;;;5003307;28;20064;-46
2022/05/31 09:12:16;;;;;;;6.25;2.88;;;15.30;53.70;;;;;;4999419;28;20433;-53
2022/05/31 09:14:53;;;;;;;7.05;2.42;;;15.40;53.70;;;;;;5004720;28;20056;-49
2022/05/31 09:17:28;;;;;;;9.07;2.65;;;15.40;53.90;;;;;;5001095;28;20054;-48
2022/05/31 09:20:01;;;;;;;5.15;2.63;;;15.40;54.10;;;;;;5002829;28;20516;-47
2022/05/31 09:22:30;;;;;;;6.00;2.70;;;15.40;53.70;;;;;;5002379;28;20054;-48
2022/05/31 09:24:58;;;;;;;8.23;2.70;;;15.50;53.50;;;;;;5002463;28;20503;-48
2022/05/31 09:27:35;;;;;;;11.90;2.70;;;15.50;53.60;;;;;;5006774;28;20049;-47
2022/05/31 09:30:07;;;;;;;6.82;2.50;;;15.60;53.90;;;;;;5006228;28;20081;-50
2022/05/31 09:32:48;;;;;;;7.18;2.90;;;15.60;54.00;;;;;;5003794;28;20062;-51
2022/05/31 09:35:54;;;;;;;5.43;2.60;;;15.60;54.00;;;;;;5000227;28;20050;-51
2022/05/31 09:38:57;;;;;;;9.70;2.53;;;15.60;54.20;;;;;;5006131;28;20053;-52
2022/05/31 09:41:31;;;;;;;6.55;2.72;;;15.70;54.40;;;;;;4999858;28;20054;-47
2022/05/31 09:44:01;;;;;;;;;;;15.70;53.80;;;;;;4996305;28;20049;-49
2022/05/31 09:46:35;;;;;;;7.07;2.90;;;15.80;53.80;;;;;;5000395;28;19925;-49
2022/05/31 09:49:19;;;;;;;6.72;2.63;;;15.90;54.20;;;;;;5000983;28;20428;-51
2022/05/31 09:51:46;;;;;;;15.90;3.00;;;15.90;53.80;;;;;;4996884;28;20089;-48
2022/05/31 09:57:06;;;;;;;4.55;2.08;;;16.10;53.60;;;;;;5008024;28;20069;-51
2022/05/31 09:59:37;;;;;;;3.90;2.15;;;16.20;53.50;;;;;;4999966;28;20046;-50
2022/05/31 10:02:27;;;;;;;5.60;2.28;;;16.30;53.70;;;;;;4996251;28;20061;-47
2022/05/31 10:05:18;;;;;;;6.25;2.22;;;16.40;53.30;;;;;;4995876;28;20057;-50
2022/05/31 10:07:46;;;;;;;4.32;1.95;;;16.50;53.20;;;;;;5004170;28;20478;-49
2022/05/31 10:10:16;;;;;;;8.10;1.73;;;16.60;53.40;;;;;;4999207;28;20378;-50
2022/05/31 10:12:52;;;;;;;5.07;2.10;;;16.70;53.10;;;;;;5000094;28;20061;-50
2022/05/31 10:15:50;;;;;;;5.72;1.80;;;16.80;51.70;;;;;;4999112;28;20054;-46
2022/05/31 10:18:29;;;;;;;2.78;1.60;;;17.00;50.40;;;;;;4998652;28;20049;-49
2022/05/31 10:20:58;;;;;;;2.92;1.60;;;17.00;50.60;;;;;;4998712;28;20042;-50
2022/05/31 10:23:33;;;;;;;3.22;1.77;;;17.10;50.60;;;;;;4999762;28;20065;-53
2022/05/31 10:26:02;;;;;;;3.28;1.50;;;17.20;50.50;;;;;;4998371;28;20057;-49
2022/05/31 10:28:36;;;;;;;5.80;1.67;;;17.30;50.60;;;;;;5002442;28;20061;-51
2022/05/31 10:31:13;;;;;;;3.72;1.70;;;17.30;49.30;;;;;;4993715;28;20042;-49
2022/05/31 10:33:41;;;;;;;4.68;1.70;;;17.40;48.30;;;;;;4999851;28;20053;-49
2022/05/31 10:36:16;;;;;;;3.38;1.67;;;17.40;48.10;;;;;;4999311;28;20509;-47
2022/05/31 10:38:45;;;;;;;2.67;1.70;;;17.40;48.00;;;;;;4999936;28;20050;-47
2022/05/31 10:41:24;;;;;;;4.40;1.80;;;17.50;48.40;;;;;;4998409;28;20050;-55
2022/05/31 10:43:59;;;;;;;4.38;1.88;;;17.60;49.30;;;;;;5001259;28;20415;-52
2022/05/31 10:46:29;;;;;;;5.63;1.77;;;17.60;47.30;;;;;;4997146;28;20066;-50
2022/05/31 10:48:59;;;;;;;4.43;1.65;;;17.70;47.90;;;;;;5000424;28;20065;-52
2022/05/31 10:51:38;;;;;;;2.30;1.50;;;17.80;48.80;;;;;;4996053;28;20512;-49
2022/05/31 10:54:35;;;;;;;5.60;1.83;;;17.90;48.10;;;;;;4999397;28;20457;-55
2022/05/31 10:57:18;;;;;;;4.03;1.40;;;18.00;47.90;;;;;;5000427;28;20057;-54
2022/05/31 10:59:53;;;;;;;3.25;1.48;;;18.10;47.50;;;;;;4997939;28;20061;-49
2022/05/31 11:02:47;;;;;;;4.97;1.88;;;18.20;47.60;;;;;;4996462;28;20073;-52
2022/05/31 11:05:19;;;;;;;6.95;1.65;;;18.30;47.10;;;;;;4999147;28;20057;-54
2022/05/31 11:13:43;;;;;;;5.57;1.88;;;18.60;47.30;;;;;;5006117;28;20065;-53
2022/05/31 11:16:18;;;;;;;4.38;1.70;;;18.70;45.80;;;;;;4997707;28;20058;-48
2022/05/31 11:19:11;;;;;;;3.90;1.73;;;18.80;45.00;;;;;;5000523;28;20076;-53
2022/05/31 11:21:55;;;;;;;3.08;1.52;;;18.90;44.20;;;;;;4999845;28;20478;-50
2022/05/31 11:24:42;;;;;;;4.97;1.63;;;19.00;45.70;;;;;;4997410;28;20053;-54
2022/05/31 11:27:27;;;;;;;3.20;1.60;;;19.00;44.80;;;;;;4997154;28;20057;-49
2022/05/31 11:30:18;;;;;;;3.03;1.40;;;19.10;44.50;;;;;;5001078;28;20382;-55
2022/05/31 11:33:06;;;;;;;7.68;1.73;;;19.10;44.80;;;;;;4993996;28;20064;-52
2022/05/31 11:35:45;;;;;;;2.50;1.45;;;19.20;44.70;;;;;;4993923;28;20046;-54
2022/05/31 11:38:18;;;;;;;6.18;2.05;;;19.30;45.30;;;;;;4996044;28;20476;-50
2022/05/31 11:40:59;;;;;;;5.57;2.50;;;19.30;45.00;;;;;;4997093;28;20057;-55
2022/05/31 11:43:51;;;;;;;3.50;1.77;;;19.40;45.40;;;;;;4994773;28;20061;-55
2022/05/31 11:46:28;;;;;;;6.78;1.80;;;19.40;44.80;;;;;;4992240;28;20069;-48
2022/05/31 11:49:03;;;;;;;3.10;1.48;;;19.40;44.70;;;;;;4996736;28;20061;-54
2022/05/31 11:51:45;;;;;;;2.58;1.40;;;19.30;43.70;;;;;;4986213;28;20046;-51
2022/05/31 11:54:35;;;;;;;2.97;1.30;;;19.30;43.00;;;;;;5001157;28;20066;-47
2022/05/31 11:57:17;;;;;;;3.03;1.20;;;19.20;43.60;;;;;;4994316;28;20405;-53
2022/05/31 11:59:49;;;;;;;4.60;1.45;;;19.20;44.60;;;;;;4995605;28;20064;-51
2022/05/31 12:02:25;;;;;;;2.05;1.10;;;19.10;43.80;;;;;;4989506;28;20054;-47
2022/05/31 12:05:03;;;;;;;2.42;1.30;;;19.10;44.60;;;;;;4994991;28;21099;-48
2022/05/31 12:07:35;;;;;;;3.30;1.30;;;19.10;44.80;;;;;;4997647;28;20069;-46
2022/05/31 12:10:11;;;;;;;8.38;1.45;;;19.20;45.40;;;;;;4999544;28;20461;-53
2022/05/31 12:12:42;;;;;;;1.50;1.13;;;19.20;45.80;;;;;;4994759;28;20058;-47
2022/05/31 12:15:15;;;;;;;2.25;1.13;;;19.30;46.40;;;;;;4997955;28;20062;-47
2022/05/31 12:17:51;;;;;;;2.97;1.40;;;19.30;46.40;;;;;;5000509;28;20057;-50
2022/05/31 12:20:27;;;;;;;1.40;1.00;;;19.40;45.70;;;;;;4999594;28;20057;-48
2022/05/31 12:23:00;;;;;;;2.50;1.08;;;19.40;46.70;;;;;;4995542;28;20065;-52
2022/05/31 12:25:35;;;;;;;1.80;1.33;;;19.60;47.10;;;;;;4998401;28;20054;-53
2022/05/31 12:28:10;;;;;;;5.32;1.10;;;19.70;45.60;;;;;;4999453;28;20433;-51
2022/05/31 12:30:51;;;;;;;1.20;1.10;;;19.80;44.90;;;;;;4998043;28;20053;-48
2022/05/31 12:33:41;;;;;;;2.05;1.05;;;19.80;45.00;;;;;;4998829;28;20059;-47
2022/05/31 12:36:10;;;;;;;3.17;1.15;;;19.90;45.60;;;;;;4997548;28;20061;-47
2022/05/31 12:39:04;;;;;;;3.05;1.05;;;20.00;45.40;;;;;;4999754;28;20045;-49
2022/05/31 12:41:34;;;;;;;2.20;1.00;;;20.00;44.90;;;;;;4993636;28;20410;-48
2022/05/31 12:44:03;;;;;;;2.22;1.15;;;20.00;45.60;;;;;;5000059;28;20055;-47
2022/05/31 12:46:37;;;;;;;3.17;1.13;;;20.10;45.30;;;;;;4999389;28;20505;-47
2022/05/31 12:49:09;;;;;;;1.77;1.20;;;20.20;45.40;;;;;;4993869;28;20417;-48
2022/05/31 12:51:38;;;;;;;4.55;1.30;;;20.20;44.90;;;;;;4994949;28;20060;-47
2022/05/31 12:54:18;;;;;;;1.90;1.15;;;20.30;45.20;;;;;;4998870;28;20434;-49
2022/05/31 12:56:59;;;;;;;1.98;0.80;;;20.30;44.90;;;;;;4993807;28;20523;-50
2022/05/31 12:59:49;;;;;;;1.60;1.17;;;20.40;44.20;;;;;;5001392;28;20053;-51
2022/05/31 13:02:42;;;;;;;3.95;1.08;;;20.40;43.00;;;;;;4996610;28;20485;-50
2022/05/31 13:05:58;;;;;;;1.15;0.80;;;20.50;42.70;;;;;;4996393;28;20053;-49
2022/05/31 13:08:55;;;;;;;1.10;0.95;;;20.50;42.10;;;;;;4959522;28;21163;-47
2022/05/31 13:20:09;;;;;;;1.80;0.93;;;20.50;40.30;;;;;;4982195;28;20066;-49
2022/05/31 13:22:38;;;;;;;1.87;0.87;;;20.50;40.70;;;;;;4985699;28;20073;-47
2022/05/31 13:25:17;;;;;;;2.72;0.90;;;20.60;41.20;;;;;;4983806;28;20066;-49
2022/05/31 13:27:51;;;;;;;2.67;0.98;;;20.60;41.80;;;;;;4985530;28;20058;-46
2022/05/31 13:30:21;;;;;;;2.22;1.08;;;20.60;41.90;;;;;;4986433;28;20054;-47
2022/05/31 13:32:50;;;;;;;1.60;1.10;;;20.70;42.40;;;;;;4994419;28;20557;-48
2022/05/31 13:35:24;;;;;;;1.20;0.90;;;20.60;42.40;;;;;;5001078;28;20057;-47
2022/05/31 13:37:56;;;;;;;1.55;0.85;;;20.70;42.60;;;;;;5001861;28;20050;-47
2022/05/31 13:40:35;;;;;;;3.08;1.23;;;20.70;42.70;;;;;;5001617;28;20053;-46